createdAt,value
2022-10-19T00:01:06.888Z,100.00
2022-10-19T00:03:35.684Z,100.00
2022-10-19T00:06:27.406Z,100.00
2022-10-19T00:08:57.115Z,100.00
2022-10-19T00:11:24.406Z,100.00
2022-10-19T00:13:52.032Z,100.00
2022-10-19T00:16:19.131Z,100.00
2022-10-19T00:18:46.220Z,100.00
2022-10-19T00:21:15.907Z,100.00
2022-10-19T00:23:43.950Z,100.00
2022-10-19T00:26:11.724Z,100.00
2022-10-19T00:28:38.554Z,100.00
2022-10-19T00:31:11.879Z,100.00
2022-10-19T00:33:39.109Z,100.00
2022-10-19T00:36:06.758Z,100.00
2022-10-19T00:38:33.616Z,100.00
2022-10-19T00:41:00.342Z,100.00
2022-10-19T00:43:30.503Z,100.00
2022-10-19T00:45:57.155Z,100.00
2022-10-19T00:48:32.104Z,100.00
2022-10-19T00:51:00.311Z,100.00
2022-10-19T00:53:30.930Z,100.00
2022-10-19T00:56:00.479Z,100.00
2022-10-19T00:58:27.889Z,100.00
2022-10-19T01:00:55.101Z,100.00
2022-10-19T01:03:21.899Z,100.00
2022-10-19T01:05:49.512Z,100.00
2022-10-19T01:08:16.732Z,100.00
2022-10-19T01:10:59.487Z,100.00
2022-10-19T01:13:45.448Z,100.00
2022-10-19T01:16:20.366Z,100.00
2022-10-19T01:18:58.340Z,100.00
2022-10-19T01:21:34.877Z,100.00
2022-10-19T01:24:11.790Z,100.00
2022-10-19T01:27:20.215Z,100.00
2022-10-19T01:29:56.966Z,100.00
2022-10-19T01:32:31.755Z,100.00
2022-10-19T01:35:28.594Z,100.00
2022-10-19T01:38:23.399Z,100.00
2022-10-19T01:41:05.183Z,100.00
2022-10-19T01:43:40.661Z,100.00
2022-10-19T01:46:11.913Z,100.00
2022-10-19T01:48:45.230Z,100.00
2022-10-19T01:51:17.983Z,100.00
2022-10-19T01:53:49.622Z,100.00
2022-10-19T01:56:20.016Z,100.00
2022-10-19T01:58:48.561Z,100.00
2022-10-19T02:01:18.576Z,100.00
2022-10-19T02:03:45.831Z,100.00
2022-10-19T02:06:14.444Z,100.00
2022-10-19T02:08:46.906Z,100.00
2022-10-19T02:11:14.989Z,100.00
2022-10-19T02:13:44.783Z,100.00
2022-10-19T02:16:20.622Z,100.00
2022-10-19T02:18:51.122Z,100.00
2022-10-19T02:21:18.842Z,100.00
2022-10-19T02:23:46.724Z,100.00
2022-10-19T02:26:14.190Z,100.00
2022-10-19T02:28:41.078Z,100.00
2022-10-19T02:31:07.853Z,100.00
2022-10-19T02:33:34.798Z,100.00
2022-10-19T02:36:01.652Z,100.00
2022-10-19T02:38:28.821Z,100.00
2022-10-19T02:41:11.720Z,100.00
2022-10-19T02:43:42.929Z,100.00
2022-10-19T02:46:31.035Z,100.00
2022-10-19T02:48:58.592Z,100.00
2022-10-19T02:51:32.770Z,100.00
2022-10-19T02:54:02.682Z,100.00
2022-10-19T02:56:32.351Z,100.00
2022-10-19T02:58:59.237Z,100.00
2022-10-19T03:01:26.164Z,100.00
2022-10-19T03:03:52.825Z,100.00
2022-10-19T03:06:19.641Z,100.00
2022-10-19T03:08:46.682Z,100.00
2022-10-19T03:11:13.368Z,100.00
2022-10-19T03:13:41.672Z,100.00
2022-10-19T03:16:10.487Z,100.00
2022-10-19T03:18:37.330Z,100.00
2022-10-19T03:21:06.204Z,100.00
2022-10-19T03:23:33.551Z,100.00
2022-10-19T03:26:00.399Z,100.00
2022-10-19T03:28:27.502Z,100.00
2022-10-19T03:30:54.335Z,100.00
2022-10-19T03:33:21.082Z,100.00
2022-10-19T03:35:47.841Z,100.00
2022-10-19T03:38:14.789Z,100.00
2022-10-19T03:40:41.701Z,100.00
2022-10-19T03:43:08.392Z,100.00
2022-10-19T03:45:35.240Z,100.00
2022-10-19T03:48:02.018Z,100.00
2022-10-19T03:50:28.767Z,100.00
2022-10-19T03:52:55.893Z,100.00
2022-10-19T03:55:22.662Z,100.00
2022-10-19T03:57:49.342Z,100.00
2022-10-19T04:00:16.212Z,100.00
2022-10-19T04:02:42.933Z,100.00
2022-10-19T04:05:09.640Z,100.00
2022-10-19T04:07:36.653Z,100.00
2022-10-19T04:10:04.038Z,100.00
2022-10-19T04:12:30.715Z,100.00
2022-10-19T04:14:57.944Z,100.00
2022-10-19T04:17:25.660Z,100.00
2022-10-19T04:19:52.386Z,100.00
2022-10-19T04:22:19.176Z,100.00
2022-10-19T04:24:45.838Z,100.00
2022-10-19T04:27:12.516Z,100.00
2022-10-19T04:29:39.226Z,100.00
2022-10-19T04:32:06.145Z,100.00
2022-10-19T04:34:35.242Z,100.00
2022-10-19T04:37:04.378Z,100.00
2022-10-19T04:39:31.080Z,100.00
2022-10-19T04:41:57.794Z,100.00
2022-10-19T04:46:56.263Z,100.00
2022-10-19T04:49:23.007Z,100.00
2022-10-19T04:51:49.895Z,100.00
2022-10-19T04:54:16.688Z,100.00
2022-10-19T04:56:43.349Z,100.00
2022-10-19T04:59:10.492Z,100.00
2022-10-19T05:01:37.333Z,100.00
2022-10-19T05:04:05.196Z,100.00
2022-10-19T05:06:32.450Z,100.00
2022-10-19T05:09:00.267Z,100.00
2022-10-19T05:11:27.387Z,100.00
2022-10-19T05:13:54.700Z,100.00
2022-10-19T05:16:22.958Z,100.00
2022-10-19T05:18:52.186Z,100.00
2022-10-19T05:21:21.208Z,100.00
2022-10-19T05:23:51.575Z,100.00
2022-10-19T05:26:19.998Z,100.00
2022-10-19T05:28:57.865Z,100.00
2022-10-19T05:31:27.594Z,100.00
2022-10-19T05:33:56.290Z,100.00
2022-10-19T05:36:29.012Z,100.00
2022-10-19T05:38:57.364Z,100.00
2022-10-19T05:41:25.724Z,100.00
2022-10-19T05:44:02.179Z,100.00
2022-10-19T05:46:30.632Z,100.00
2022-10-19T05:48:58.334Z,100.00
2022-10-19T05:51:26.603Z,100.00
2022-10-19T05:53:54.114Z,100.00
2022-10-19T05:56:26.845Z,100.00
2022-10-19T05:58:55.130Z,100.00
2022-10-19T06:01:21.865Z,100.00
2022-10-19T06:03:52.133Z,100.00
2022-10-19T06:06:19.347Z,100.00
2022-10-19T06:08:46.513Z,100.00
2022-10-19T06:11:18.289Z,100.00
2022-10-19T06:13:46.480Z,100.00
2022-10-19T06:16:15.962Z,100.00
2022-10-19T06:18:42.944Z,100.00
2022-10-19T06:21:19.189Z,100.00
2022-10-19T06:23:51.156Z,100.00
2022-10-19T06:26:18.160Z,100.00
2022-10-19T06:28:45.749Z,100.00
2022-10-19T06:31:13.708Z,100.00
2022-10-19T06:33:43.001Z,100.00
2022-10-19T06:36:17.145Z,100.00
2022-10-19T06:38:44.605Z,100.00
2022-10-19T06:41:12.395Z,100.00
2022-10-19T06:43:39.450Z,100.00
2022-10-19T06:46:06.907Z,100.00
2022-10-19T06:48:33.893Z,100.00
2022-10-19T06:51:06.194Z,100.00
2022-10-19T06:53:34.735Z,100.00
2022-10-19T06:56:04.195Z,100.00
2022-10-19T06:58:31.253Z,100.00
2022-10-19T07:00:59.443Z,100.00
2022-10-19T07:03:27.750Z,100.00
2022-10-19T07:06:02.599Z,100.00
2022-10-19T07:08:31.226Z,100.00
2022-10-19T07:11:00.971Z,100.00
2022-10-19T07:13:29.193Z,100.00
2022-10-19T07:16:08.819Z,100.00
2022-10-19T07:18:36.727Z,100.00
2022-10-19T07:21:12.446Z,100.00
2022-10-19T07:23:42.116Z,100.00
2022-10-19T07:26:26.865Z,100.00
2022-10-19T07:28:56.131Z,100.00
2022-10-19T07:31:24.439Z,100.00
2022-10-19T07:33:54.986Z,100.00
2022-10-19T07:36:22.118Z,100.00
2022-10-19T07:38:48.872Z,100.00
2022-10-19T07:41:18.372Z,100.00
2022-10-19T07:43:47.026Z,100.00
2022-10-19T07:46:26.323Z,100.00
2022-10-19T07:48:54.022Z,100.00
2022-10-19T07:51:22.935Z,100.00
2022-10-19T07:53:49.961Z,100.00
2022-10-19T07:56:25.503Z,100.00
2022-10-19T07:58:54.949Z,100.00
2022-10-19T08:01:30.573Z,100.00
2022-10-19T08:04:49.010Z,100.00
2022-10-19T08:06:45.994Z,100.00
2022-10-19T08:09:27.607Z,100.00
2022-10-19T08:11:59.901Z,100.00
2022-10-19T08:14:26.928Z,100.00
2022-10-19T08:16:53.616Z,100.00
2022-10-19T08:19:20.404Z,100.00
2022-10-19T08:21:47.509Z,100.00
2022-10-19T08:24:17.315Z,100.00
2022-10-19T08:26:44.831Z,100.00
2022-10-19T08:29:18.095Z,100.00
2022-10-19T08:31:46.153Z,100.00
2022-10-19T08:34:14.068Z,100.00
2022-10-19T08:39:10.222Z,100.00
2022-10-19T08:41:39.968Z,100.00
2022-10-19T08:44:19.132Z,100.00
2022-10-19T08:46:52.023Z,100.00
2022-10-19T08:49:22.549Z,100.00
2022-10-19T08:52:15.161Z,100.00
2022-10-19T08:55:04.762Z,100.00
2022-10-19T08:58:03.790Z,100.00
2022-10-19T09:03:17.648Z,100.00
2022-10-19T09:05:55.699Z,100.00
2022-10-19T09:08:22.517Z,100.00
2022-10-19T09:10:52.598Z,100.00
2022-10-19T09:13:29.246Z,100.00
2022-10-19T09:16:04.343Z,100.00
2022-10-19T09:18:35.718Z,100.00
2022-10-19T09:21:05.172Z,100.00
2022-10-19T09:23:50.695Z,100.00
2022-10-19T09:26:19.550Z,100.00
2022-10-19T09:28:58.659Z,100.00
2022-10-19T09:31:42.890Z,100.00
2022-10-19T09:34:42.384Z,100.00
2022-10-19T09:37:17.954Z,100.00
2022-10-19T09:39:54.166Z,99.96
2022-10-19T09:42:29.589Z,95.48
2022-10-19T09:44:58.723Z,94.96
2022-10-19T09:47:40.653Z,100.00
2022-10-19T09:50:22.661Z,100.00
2022-10-19T09:52:53.835Z,98.50
2022-10-19T09:55:39.318Z,90.41
2022-10-19T09:58:17.957Z,84.28
2022-10-19T10:00:47.796Z,78.06
2022-10-19T10:03:25.428Z,72.47
2022-10-19T10:05:53.521Z,71.99
2022-10-19T10:08:25.698Z,69.39
2022-10-19T10:11:14.916Z,67.37
2022-10-19T10:13:50.405Z,69.43
2022-10-19T10:16:21.387Z,67.17
2022-10-19T10:18:55.826Z,64.76
2022-10-19T10:21:32.202Z,60.26
2022-10-19T10:24:19.876Z,60.83
2022-10-19T10:26:51.666Z,59.64
2022-10-19T10:29:26.251Z,55.64
2022-10-19T10:31:58.969Z,54.13
2022-10-19T10:34:38.762Z,53.22
2022-10-19T10:37:40.562Z,53.70
2022-10-19T10:40:19.994Z,55.06
2022-10-19T10:42:51.798Z,54.76
2022-10-19T10:45:31.253Z,54.67
2022-10-19T10:48:00.717Z,54.33
2022-10-19T10:50:36.585Z,53.95
2022-10-19T10:53:07.565Z,51.88
2022-10-19T10:55:34.874Z,50.84
2022-10-19T10:58:31.952Z,51.15
2022-10-19T11:01:06.558Z,49.34
2022-10-19T11:03:37.872Z,48.00
2022-10-19T11:06:04.678Z,49.45
2022-10-19T11:08:40.216Z,48.87
2022-10-19T11:11:20.869Z,47.28
2022-10-19T11:14:09.062Z,48.25
2022-10-19T11:16:41.507Z,51.31
2022-10-19T11:19:19.396Z,51.80
2022-10-19T11:22:10.942Z,50.10
2022-10-19T11:25:06.155Z,51.58
2022-10-19T11:27:51.729Z,50.75
2022-10-19T11:30:23.989Z,50.91
2022-10-19T11:32:56.684Z,50.50
2022-10-19T11:35:45.858Z,48.43
2022-10-19T11:38:30.478Z,47.42
2022-10-19T11:41:34.975Z,49.31
2022-10-19T11:44:24.271Z,48.31
2022-10-19T11:46:57.075Z,46.13
2022-10-19T11:49:51.457Z,45.80
2022-10-19T11:52:27.761Z,45.49
2022-10-19T11:54:57.470Z,44.22
2022-10-19T11:57:47.185Z,44.02
2022-10-19T12:00:39.177Z,45.19
2022-10-19T12:03:22.585Z,44.46
2022-10-19T12:06:27.925Z,43.62
2022-10-19T12:09:00.717Z,42.82
2022-10-19T12:12:04.357Z,43.31
2022-10-19T12:14:36.369Z,42.30
2022-10-19T12:17:10.187Z,43.25
2022-10-19T12:19:42.827Z,41.90
2022-10-19T12:22:17.270Z,42.67
2022-10-19T12:24:44.112Z,41.84
2022-10-19T12:27:17.163Z,42.30
2022-10-19T12:29:48.042Z,42.29
2022-10-19T12:32:19.937Z,40.55
2022-10-19T12:35:04.452Z,40.48
2022-10-19T12:37:34.987Z,40.59
2022-10-19T12:40:09.518Z,39.31
2022-10-19T12:42:51.655Z,40.25
2022-10-19T12:45:30.525Z,40.00
2022-10-19T12:48:10.999Z,40.47
2022-10-19T12:50:50.175Z,38.89
2022-10-19T12:56:04.077Z,38.28
2022-10-19T12:58:57.987Z,39.39
2022-10-19T13:01:28.585Z,38.13
2022-10-19T13:04:23.323Z,38.51
2022-10-19T13:07:18.217Z,38.53
2022-10-19T13:09:47.960Z,38.42
2022-10-19T13:12:21.777Z,39.20
2022-10-19T13:14:51.658Z,39.74
2022-10-19T13:17:37.269Z,40.77
2022-10-19T13:20:13.485Z,41.46
2022-10-19T13:23:13.350Z,41.92
2022-10-19T13:25:41.128Z,42.41
2022-10-19T13:28:07.931Z,43.56
2022-10-19T13:30:44.135Z,44.59
2022-10-19T13:33:24.672Z,43.58
2022-10-19T13:36:00.303Z,44.46
2022-10-19T13:38:59.545Z,44.68
2022-10-19T13:41:28.598Z,44.80
2022-10-19T13:44:04.827Z,44.28
2022-10-19T13:46:31.500Z,44.22
2022-10-19T13:49:33.052Z,45.95
2022-10-19T13:52:53.880Z,46.33
2022-10-19T13:55:26.179Z,45.55
2022-10-19T13:58:14.223Z,45.71
2022-10-19T14:01:02.310Z,46.40
2022-10-19T14:03:38.132Z,46.73
2022-10-19T14:06:28.445Z,46.71
2022-10-19T14:09:05.066Z,45.67
2022-10-19T14:11:56.388Z,45.52
2022-10-19T14:14:28.477Z,45.18
2022-10-19T14:16:59.673Z,45.23
2022-10-19T14:19:29.768Z,46.07
2022-10-19T14:22:16.615Z,46.76
2022-10-19T14:24:43.339Z,46.19
2022-10-19T14:27:22.072Z,46.21
2022-10-19T14:29:52.102Z,45.88
2022-10-19T14:32:26.197Z,45.74
2022-10-19T14:34:54.045Z,45.17
2022-10-19T14:37:23.990Z,44.88
2022-10-19T14:40:01.865Z,45.13
2022-10-19T14:42:58.446Z,45.66
2022-10-19T14:45:28.603Z,45.15
2022-10-19T14:48:03.050Z,45.46
2022-10-19T14:50:33.236Z,45.37
2022-10-19T14:53:26.843Z,45.15
2022-10-19T14:55:58.338Z,44.39
2022-10-19T14:58:30.651Z,45.13
2022-10-19T15:00:57.571Z,45.17
2022-10-19T15:03:30.464Z,44.80
2022-10-19T15:06:05.542Z,45.00
2022-10-19T15:08:44.071Z,45.39
2022-10-19T15:11:27.116Z,45.61
2022-10-19T15:14:09.445Z,45.74
2022-10-19T15:16:39.142Z,45.36
2022-10-19T15:19:14.543Z,46.31
2022-10-19T15:21:41.276Z,46.77
2022-10-19T15:24:28.090Z,47.41
2022-10-19T15:27:08.808Z,48.19
2022-10-19T15:29:36.637Z,48.68
2022-10-19T15:32:22.848Z,48.98
2022-10-19T15:34:49.689Z,49.51
2022-10-19T15:37:21.006Z,50.11
2022-10-19T15:39:48.283Z,52.02
2022-10-19T15:42:36.814Z,54.38
2022-10-19T15:45:24.799Z,53.37
2022-10-19T15:48:09.787Z,52.91
2022-10-19T15:50:41.094Z,51.09
2022-10-19T15:53:07.718Z,50.08
2022-10-19T15:58:28.637Z,44.76
2022-10-19T16:00:55.364Z,45.08
2022-10-19T16:03:23.189Z,43.15
2022-10-19T16:05:49.955Z,42.42
2022-10-19T16:08:16.646Z,42.56
2022-10-19T16:10:43.363Z,43.02
2022-10-19T16:13:10.201Z,42.92
2022-10-19T16:15:37.461Z,42.00
2022-10-19T16:18:04.125Z,41.43
2022-10-19T16:20:30.875Z,40.97
2022-10-19T16:22:58.694Z,40.69
2022-10-19T16:25:25.618Z,40.55
2022-10-19T16:27:52.423Z,40.89
2022-10-19T16:30:19.243Z,40.80
2022-10-19T16:32:48.671Z,41.42
2022-10-19T16:35:15.941Z,42.09
2022-10-19T16:37:42.945Z,41.98
2022-10-19T16:40:10.159Z,41.89
2022-10-19T16:42:37.395Z,41.72
2022-10-19T16:45:04.569Z,41.66
2022-10-19T16:47:31.246Z,41.37
2022-10-19T16:50:00.204Z,41.19
2022-10-19T16:52:28.707Z,41.38
2022-10-19T16:54:55.347Z,41.33
2022-10-19T16:57:22.092Z,41.64
2022-10-19T17:02:24.679Z,41.06
2022-10-19T17:04:52.373Z,40.65
2022-10-19T17:07:19.513Z,41.06
2022-10-19T17:09:47.902Z,41.08
2022-10-19T17:12:17.626Z,41.36
2022-10-19T17:14:44.286Z,41.58
2022-10-19T17:17:11.569Z,41.55
2022-10-19T17:19:38.483Z,42.03
2022-10-19T17:22:05.651Z,41.89
2022-10-19T17:24:32.697Z,41.30
2022-10-19T17:27:03.117Z,41.21
2022-10-19T17:29:30.056Z,41.27
2022-10-19T17:31:57.333Z,41.39
2022-10-19T17:34:24.287Z,42.15
2022-10-19T17:36:51.138Z,43.24
2022-10-19T17:39:24.395Z,42.40
2022-10-19T17:41:54.555Z,42.17
2022-10-19T17:47:16.599Z,41.79
2022-10-19T17:49:43.302Z,41.75
2022-10-19T17:52:10.087Z,41.76
2022-10-19T17:54:43.704Z,41.34
2022-10-19T17:57:21.124Z,41.64
2022-10-19T17:59:52.984Z,41.70
2022-10-19T18:02:20.313Z,41.69
2022-10-19T18:04:46.980Z,41.88
2022-10-19T18:07:13.732Z,42.02
2022-10-19T18:09:40.469Z,42.84
2022-10-19T18:12:08.717Z,42.52
2022-10-19T18:14:35.451Z,42.78
2022-10-19T18:17:02.108Z,42.40
2022-10-19T18:19:28.839Z,42.85
2022-10-19T18:21:55.587Z,43.25
2022-10-19T18:24:22.303Z,42.90
2022-10-19T18:26:50.959Z,42.71
2022-10-19T18:29:22.584Z,43.54
2022-10-19T18:31:52.437Z,42.59
2022-10-19T18:34:22.113Z,42.86
2022-10-19T18:36:49.343Z,43.23
2022-10-19T18:39:16.630Z,43.08
2022-10-19T18:41:43.671Z,42.95
2022-10-19T18:44:13.377Z,43.20
2022-10-19T18:46:40.803Z,43.33
2022-10-19T18:49:08.437Z,43.89
2022-10-19T18:51:36.159Z,44.40
2022-10-19T18:54:03.010Z,44.50
2022-10-19T18:56:29.733Z,44.54
2022-10-19T18:58:57.019Z,44.32
2022-10-19T19:01:28.933Z,45.75
2022-10-19T19:03:57.785Z,46.05
2022-10-19T19:06:29.435Z,46.64
2022-10-19T19:09:01.050Z,47.01
2022-10-19T19:11:33.019Z,48.35
2022-10-19T19:14:06.371Z,49.09
2022-10-19T19:16:36.025Z,49.47
2022-10-19T19:19:02.823Z,49.32
2022-10-19T19:21:33.780Z,49.71
2022-10-19T19:24:02.928Z,51.09
2022-10-19T19:26:31.676Z,51.65
2022-10-19T19:28:58.932Z,52.19
2022-10-19T19:31:26.117Z,52.05
2022-10-19T19:33:52.994Z,51.05
2022-10-19T19:36:20.736Z,50.63
2022-10-19T19:38:50.697Z,49.51
2022-10-19T19:41:17.807Z,48.24
2022-10-19T19:43:44.816Z,47.79
2022-10-19T19:46:15.201Z,47.28
2022-10-19T19:48:43.728Z,46.76
2022-10-19T19:51:12.625Z,47.66
2022-10-19T19:53:39.869Z,48.33
2022-10-19T19:56:08.322Z,48.71
2022-10-19T19:58:35.425Z,48.88
2022-10-19T20:01:13.721Z,48.82
2022-10-19T20:03:41.577Z,49.72
2022-10-19T20:06:09.063Z,49.50
2022-10-19T20:08:37.008Z,48.64
2022-10-19T20:11:07.157Z,49.70
2022-10-19T20:13:34.838Z,49.50
2022-10-19T20:16:08.953Z,48.91
2022-10-19T20:18:36.022Z,51.14
2022-10-19T20:21:04.560Z,50.10
2022-10-19T20:23:33.077Z,50.21
2022-10-19T20:25:59.776Z,51.45
2022-10-19T20:28:27.729Z,57.23
2022-10-19T20:31:05.410Z,59.12
2022-10-19T20:33:33.651Z,56.06
2022-10-19T20:36:09.486Z,56.78
2022-10-19T20:38:38.660Z,56.92
2022-10-19T20:41:08.190Z,55.46
2022-10-19T20:43:36.806Z,55.99
2022-10-19T20:46:10.364Z,55.26
2022-10-19T20:48:37.222Z,55.57
2022-10-19T20:51:09.986Z,55.92
2022-10-19T20:53:36.736Z,55.04
2022-10-19T20:56:08.634Z,54.08
2022-10-19T20:58:38.737Z,53.99
2022-10-19T21:01:18.073Z,53.41
2022-10-19T21:03:50.904Z,54.40
2022-10-19T21:06:17.544Z,53.96
2022-10-19T21:08:44.380Z,55.23
2022-10-19T21:11:19.619Z,55.36
2022-10-19T21:13:47.424Z,56.03
2022-10-19T21:16:19.777Z,56.83
2022-10-19T21:18:48.507Z,62.31
2022-10-19T21:21:30.555Z,63.98
2022-10-19T21:24:00.292Z,64.13
2022-10-19T21:26:29.589Z,67.16
2022-10-19T21:28:56.630Z,72.18
2022-10-19T21:31:25.003Z,76.47
2022-10-19T21:33:52.050Z,81.31
2022-10-19T21:36:21.139Z,88.90
2022-10-19T21:38:48.216Z,97.63
2022-10-19T21:41:23.779Z,100.00
2022-10-19T21:43:53.754Z,100.00
2022-10-19T21:46:22.927Z,100.00
2022-10-19T21:48:50.964Z,100.00
2022-10-19T21:51:17.968Z,100.00
2022-10-19T21:53:44.704Z,100.00
2022-10-19T21:56:11.559Z,100.00
2022-10-19T21:58:38.441Z,100.00
2022-10-19T22:01:06.122Z,100.00
2022-10-19T22:03:33.174Z,100.00
2022-10-19T22:06:00.110Z,100.00
2022-10-19T22:08:27.461Z,99.85
2022-10-19T22:10:54.473Z,97.45
2022-10-19T22:13:21.298Z,97.95
2022-10-19T22:15:48.155Z,97.79
2022-10-19T22:18:15.037Z,94.46
2022-10-19T22:20:41.782Z,93.28
2022-10-19T22:23:08.570Z,90.76
2022-10-19T22:25:35.813Z,88.31
2022-10-19T22:28:02.680Z,86.90
2022-10-19T22:30:29.484Z,81.28
2022-10-19T22:32:56.261Z,80.36
2022-10-19T22:35:23.080Z,78.07
2022-10-19T22:37:49.777Z,77.37
2022-10-19T22:40:16.573Z,75.69
2022-10-19T22:42:43.216Z,75.05
2022-10-19T22:45:09.963Z,73.70
2022-10-19T22:47:36.651Z,74.12
2022-10-19T22:50:04.138Z,74.14
2022-10-19T22:52:30.782Z,74.78
2022-10-19T22:54:57.469Z,75.91
2022-10-19T22:57:24.127Z,77.28
2022-10-19T22:59:50.848Z,78.51
2022-10-19T23:02:17.545Z,79.99
2022-10-19T23:04:44.607Z,86.13
2022-10-19T23:09:42.842Z,92.32
2022-10-19T23:12:09.476Z,97.28
2022-10-19T23:14:36.169Z,100.00
2022-10-19T23:17:02.850Z,100.00
2022-10-19T23:19:29.494Z,100.00
2022-10-19T23:21:56.175Z,100.00
2022-10-19T23:24:22.919Z,100.00
2022-10-19T23:26:49.605Z,100.00
2022-10-19T23:29:16.246Z,100.00
2022-10-19T23:31:43.502Z,100.00
2022-10-19T23:34:10.186Z,100.00
2022-10-19T23:36:36.878Z,100.00
2022-10-19T23:39:03.637Z,100.00
2022-10-19T23:41:30.336Z,100.00
2022-10-19T23:43:57.237Z,100.00
2022-10-19T23:46:24.045Z,100.00
2022-10-19T23:48:50.983Z,100.00
2022-10-19T23:51:20.337Z,100.00
2022-10-19T23:53:48.950Z,100.00
2022-10-19T23:56:29.304Z,100.00
2022-10-19T23:58:56.697Z,96.84
